Time;durP1;ratioP1;P1;durP2;ratioP2;P2;SDS_P1;SDS_P2;PMS_P1;PMS_P2;Temp;Humidity;BMP_temperature;BMP_pressure;BME280_temperature;BME280_humidity;BME280_pressure;Samples;Min_cycle;Max_cycle;Signal;HPM_P1;HPM_P2
2023/09/02 06:56:15;;;;;;;11.77;10.18;;;;;;;16.90;100.00;101673.72;5068753;28;20371;-70
2023/09/02 06:58:42;;;;;;;13.30;10.27;;;;;;;16.91;100.00;101678.94;5087097;28;20619;-68
2023/09/02 07:01:18;;;;;;;15.55;10.32;;;;;;;16.90;100.00;101684.66;5087626;28;20551;-68
2023/09/02 07:03:44;;;;;;;14.13;9.77;;;;;;;16.97;100.00;101690.78;5080725;28;20028;-71
2023/09/02 07:06:13;;;;;;;13.68;9.57;;;;;;;16.97;100.00;101690.78;5088557;28;20615;-76
2023/09/02 07:08:39;;;;;;;12.50;9.30;;;;;;;17.02;100.00;101699.06;5089908;28;20039;-70
2023/09/02 07:11:05;;;;;;;11.18;9.00;;;;;;;17.07;100.00;101701.06;5089515;28;20028;-72
2023/09/02 07:13:31;;;;;;;10.60;9.50;;;;;;;17.06;100.00;101711.19;5061073;28;20033;-73
2023/09/02 07:16:03;;;;;;;12.80;9.45;;;;;;;17.13;100.00;101717.28;5048729;28;20044;-71
2023/09/02 07:18:29;;;;;;;10.45;9.32;;;;;;;17.14;100.00;101712.66;5057348;28;20059;-71
2023/09/02 07:21:02;;;;;;;13.70;9.98;;;;;;;17.20;100.00;101721.78;5068964;28;20016;-71
2023/09/02 07:23:28;;;;;;;11.55;9.32;;;;;;;17.23;100.00;101716.66;5060966;28;20020;-71
2023/09/02 07:25:56;;;;;;;16.83;9.50;;;;;;;17.30;100.00;101721.94;5081754;28;20028;-71
2023/09/02 07:28:21;;;;;;;11.63;8.82;;;;;;;17.32;100.00;101720.63;5049047;28;20021;-71
2023/09/02 07:30:47;;;;;;;14.02;9.45;;;;;;;17.35;100.00;101733.81;5049078;28;20078;-70
2023/09/02 07:33:12;;;;;;;12.38;9.60;;;;;;;17.38;100.00;101728.91;5054974;28;20112;-72
2023/09/02 07:35:38;;;;;;;10.77;8.82;;;;;;;17.42;100.00;101717.22;5068907;28;20452;-71
2023/09/02 07:38:04;;;;;;;12.52;9.25;;;;;;;17.42;100.00;101719.13;5060472;28;20060;-71
2023/09/02 07:40:29;;;;;;;11.13;8.98;;;;;;;17.44;100.00;101726.00;5068434;28;20024;-71
2023/09/02 07:42:55;;;;;;;11.75;8.48;;;;;;;17.51;100.00;101729.41;5062393;28;20372;-71
2023/09/02 07:45:20;;;;;;;11.63;8.32;;;;;;;17.54;100.00;101731.66;5048821;28;20052;-71
2023/09/02 07:47:45;;;;;;;11.98;8.57;;;;;;;17.51;100.00;101734.88;5048136;28;20067;-71
2023/09/02 07:50:11;;;;;;;10.75;9.02;;;;;;;17.52;100.00;101741.19;5048220;28;20376;-71
2023/09/02 07:52:37;;;;;;;13.15;9.85;;;;;;;17.57;100.00;101740.41;5048118;28;20068;-71
2023/09/02 07:55:03;;;;;;;11.43;9.75;;;;;;;17.58;100.00;101740.16;5048364;28;20068;-71
2023/09/02 07:57:30;;;;;;;16.55;10.90;;;;;;;17.64;100.00;101754.78;5047947;28;20033;-71
2023/09/02 07:59:56;;;;;;;13.38;10.75;;;;;;;17.67;100.00;101746.88;5048350;28;20045;-71
2023/09/02 08:02:21;;;;;;;13.48;11.48;;;;;;;17.73;100.00;101750.53;5044800;28;20060;-71
2023/09/02 08:04:46;;;;;;;15.20;13.02;;;;;;;17.79;100.00;101755.00;5066717;28;20033;-70
2023/09/02 08:07:12;;;;;;;15.52;13.82;;;;;;;17.75;100.00;101751.09;5046875;28;20037;-71
2023/09/02 08:09:37;;;;;;;16.73;13.68;;;;;;;17.79;100.00;101752.25;5034799;28;20029;-72
2023/09/02 08:12:03;;;;;;;17.08;15.20;;;;;;;17.81;100.00;101755.56;5034525;28;20025;-76
2023/09/02 08:14:28;;;;;;;18.92;17.02;;;;;;;17.84;100.00;101760.53;5033296;28;20040;-73
2023/09/02 08:16:53;;;;;;;21.88;19.67;;;;;;;17.84;100.00;101763.25;5040132;28;20033;-71
2023/09/02 08:19:18;;;;;;;22.85;20.55;;;;;;;17.88;100.00;101760.88;5054912;28;20021;-72
2023/09/02 08:21:44;;;;;;;23.83;21.52;;;;;;;17.89;100.00;101763.38;5054915;28;20021;-72
2023/09/02 08:24:09;;;;;;;24.92;22.63;;;;;;;17.94;100.00;101767.28;5053955;28;20052;-72
2023/09/02 08:26:34;;;;;;;27.02;24.27;;;;;;;17.96;100.00;101763.19;5050055;28;20056;-71
2023/09/02 08:29:00;;;;;;;23.83;21.52;;;;;;;17.95;100.00;101761.56;5034541;28;20025;-70
2023/09/02 08:31:25;;;;;;;24.02;21.52;;;;;;;17.99;100.00;101761.88;5035266;28;20061;-73
2023/09/02 08:33:50;;;;;;;24.23;21.73;;;;;;;17.99;100.00;101770.91;5034317;28;20025;-74
2023/09/02 08:36:16;;;;;;;26.35;23.88;;;;;;;17.99;100.00;101778.31;5034618;28;20029;-72
2023/09/02 08:38:42;;;;;;;27.23;23.90;;;;;;;18.00;100.00;101777.22;5032987;28;20040;-73
2023/09/02 08:41:13;;;;;;;25.65;23.10;;;;;;;18.04;100.00;101778.38;5037592;28;20037;-71
2023/09/02 08:43:38;;;;;;;27.63;25.02;;;;;;;18.08;100.00;101768.56;5035243;28;20430;-73
2023/09/02 08:46:07;;;;;;;23.90;21.60;;;;;;;18.05;100.00;101790.97;5034488;28;20021;-73
2023/09/02 08:48:36;;;;;;;22.40;20.38;;;;;;;18.09;100.00;101789.41;5034689;28;20032;-73
2023/09/02 08:51:01;;;;;;;22.67;20.48;;;;;;;18.08;100.00;101790.47;5033193;28;20037;-73
2023/09/02 08:53:29;;;;;;;22.02;19.85;;;;;;;18.07;100.00;101797.03;5035530;28;20049;-74
2023/09/02 08:55:56;;;;;;;23.15;20.80;;;;;;;18.11;100.00;101792.72;5032510;28;20620;-73
2023/09/02 08:58:22;;;;;;;22.20;19.95;;;;;;;18.15;100.00;101791.13;5034542;28;20060;-73
2023/09/02 09:00:48;;;;;;;22.08;19.75;;;;;;;18.13;100.00;101789.72;5030277;28;20037;-73
2023/09/02 09:03:19;;;;;;;20.55;18.42;;;;;;;18.16;100.00;101794.69;5033930;28;20025;-79
2023/09/02 09:05:46;;;;;;;22.20;19.52;;;;;;;18.15;100.00;101788.41;5034422;28;20032;-73
2023/09/02 09:08:13;;;;;;;20.23;18.33;;;;;;;18.21;100.00;101792.03;5033794;28;20030;-73
2023/09/02 09:10:38;;;;;;;20.40;18.30;;;;;;;18.26;100.00;101791.28;5033005;28;20033;-74
2023/09/02 09:13:07;;;;;;;19.55;17.65;;;;;;;18.28;100.00;101802.81;5040404;28;20355;-74
2023/09/02 09:15:35;;;;;;;20.08;17.98;;;;;;;18.32;100.00;101804.78;5034159;28;20472;-74
2023/09/02 09:18:03;;;;;;;20.80;18.90;;;;;;;18.39;100.00;101802.69;5032967;28;20108;-73
2023/09/02 09:20:33;;;;;;;20.88;18.73;;;;;;;18.44;100.00;101807.41;5034212;28;20030;-81
2023/09/02 09:22:58;;;;;;;22.52;20.33;;;;;;;18.48;100.00;101799.47;5033579;28;20220;-77
2023/09/02 09:25:23;;;;;;;23.75;20.92;;;;;;;18.52;100.00;101798.72;5052772;28;20445;-72
2023/09/02 09:27:49;;;;;;;23.95;19.65;;;;;;;18.55;100.00;101798.19;5041710;28;20048;-71
2023/09/02 09:30:29;;;;;;;23.40;21.08;;;;;;;18.61;100.00;101807.31;5038628;28;20112;-71
2023/09/02 09:33:00;;;;;;;22.45;20.25;;;;;;;18.71;100.00;101814.84;5053656;28;20028;-71
2023/09/02 09:35:26;;;;;;;25.38;22.88;;;;;;;18.72;100.00;101814.59;5068350;28;20085;-71
2023/09/02 09:37:55;;;;;;;25.88;23.13;;;;;;;18.74;100.00;101830.78;5073328;28;20031;-72
2023/09/02 09:40:31;;;;;;;27.77;25.08;;;;;;;18.78;100.00;101835.50;5073678;28;20158;-71
2023/09/02 09:43:01;;;;;;;24.67;22.13;;;;;;;18.76;100.00;101842.31;5061991;28;20460;-71
2023/09/02 09:45:28;;;;;;;23.00;20.90;;;;;;;18.74;100.00;101844.50;5046288;28;20527;-71
2023/09/02 09:47:58;;;;;;;23.98;21.85;;;;;;;18.76;100.00;101845.88;5033996;28;20029;-71
2023/09/02 09:50:23;;;;;;;24.25;22.05;;;;;;;18.84;100.00;101844.63;5033574;28;20445;-71
2023/09/02 09:53:01;;;;;;;23.00;20.92;;;;;;;18.88;100.00;101847.72;5033490;28;20036;-71
2023/09/02 09:55:31;;;;;;;23.35;21.05;;;;;;;18.97;100.00;101845.34;5034440;28;20045;-71
2023/09/02 09:57:58;;;;;;;22.23;20.02;;;;;;;19.00;100.00;101840.16;5032204;28;20021;-71
2023/09/02 10:00:25;;;;;;;21.92;18.48;;;;;;;19.00;100.00;101840.16;5031446;28;20032;-72
2023/09/02 10:02:55;;;;;;;21.52;19.48;;;;;;;19.02;100.00;101842.66;5031867;28;20036;-72
2023/09/02 10:05:26;;;;;;;21.65;19.55;;;;;;;19.08;100.00;101836.13;5033364;28;20464;-72
2023/09/02 10:08:05;;;;;;;21.70;19.58;;;;;;;19.10;100.00;101840.28;5032710;28;20029;-72
2023/09/02 10:10:34;;;;;;;21.90;19.83;;;;;;;19.10;100.00;101847.69;5045880;28;20057;-71
2023/09/02 10:13:00;;;;;;;20.08;18.30;;;;;;;19.12;100.00;101846.31;5053084;28;20024;-71
2023/09/02 10:15:27;;;;;;;19.50;17.70;;;;;;;19.15;100.00;101855.97;5042634;28;20075;-72
2023/09/02 10:17:57;;;;;;;22.73;20.73;;;;;;;19.24;100.00;101859.88;5033044;28;20025;-72
2023/09/02 10:20:26;;;;;;;22.80;20.75;;;;;;;19.32;100.00;101866.00;5033009;28;20025;-72
2023/09/02 10:22:53;;;;;;;21.60;19.58;;;;;;;19.37;100.00;101869.63;5032938;28;20048;-72
2023/09/02 10:25:27;;;;;;;18.55;16.67;;;;;;;19.42;100.00;101866.13;5042545;28;20033;-72
2023/09/02 10:28:10;;;;;;;18.48;16.58;;;;;;;19.50;100.00;101862.88;5052794;28;20108;-72
2023/09/02 10:30:42;;;;;;;16.77;15.18;;;;;;;19.51;100.00;101866.47;5051101;28;20052;-72
2023/09/02 10:33:16;;;;;;;17.55;15.95;;;;;;;19.57;100.00;101869.00;5043586;28;20090;-72
2023/09/02 10:35:44;;;;;;;17.60;15.98;;;;;;;19.58;100.00;101865.16;5031388;28;20026;-72
2023/09/02 10:38:15;;;;;;;17.70;15.95;;;;;;;19.54;100.00;101875.00;5032511;28;20037;-72
2023/09/02 10:40:45;;;;;;;18.67;16.88;;;;;;;19.56;100.00;101874.75;5032023;28;20100;-72
2023/09/02 10:43:11;;;;;;;19.65;17.85;;;;;;;19.51;100.00;101875.53;5031584;28;20034;-71
2023/09/02 10:45:36;;;;;;;18.63;16.65;;;;;;;19.56;100.00;101881.06;5031359;28;20041;-72
2023/09/02 10:48:02;;;;;;;19.77;17.77;;;;;;;19.55;100.00;101886.81;5032630;28;20037;-72
2023/09/02 10:50:29;;;;;;;20.13;18.13;;;;;;;19.57;100.00;101890.13;5046821;28;20024;-72
2023/09/02 10:52:55;;;;;;;26.70;24.05;;;;;;;19.58;100.00;101881.63;5050656;28;20033;-72
2023/09/02 10:55:21;;;;;;;26.88;24.17;;;;;;;19.54;100.00;101883.25;5043084;28;20053;-78
2023/09/02 10:57:49;;;;;;;27.65;24.98;;;;;;;19.56;100.00;101883.81;5037506;28;20026;-73
2023/09/02 11:00:16;;;;;;;27.65;24.95;;;;;;;19.52;100.00;101882.69;5051959;28;20028;-75
2023/09/02 11:02:44;;;;;;;26.88;24.23;;;;;;;19.57;100.00;101887.41;5043077;28;20116;-73
2023/09/02 11:05:09;;;;;;;28.30;25.23;;;;;;;19.54;100.00;101885.16;5033544;28;20025;-72
2023/09/02 11:07:39;;;;;;;25.83;23.23;;;;;;;19.47;100.00;101894.44;5037554;28;20029;-72
2023/09/02 11:10:09;;;;;;;25.63;23.13;;;;;;;19.52;100.00;101893.66;5049883;28;20500;-72
2023/09/02 11:12:54;;;;;;;23.90;21.65;;;;;;;19.52;100.00;101893.66;5041009;28;20475;-74
2023/09/02 11:15:20;;;;;;;25.25;22.75;;;;;;;19.46;100.00;101892.78;5051666;28;20158;-72
2023/09/02 11:17:45;;;;;;;25.23;22.63;;;;;;;19.42;100.00;101894.38;5051319;28;20111;-73
2023/09/02 11:20:13;;;;;;;25.10;22.33;;;;;;;19.36;100.00;101900.09;5052084;28;20444;-73
2023/09/02 11:23:09;;;;;;;23.85;21.55;;;;;;;19.30;100.00;101905.50;5043642;28;20034;-73
2023/09/02 11:25:39;;;;;;;24.15;21.80;;;;;;;19.27;100.00;101906.03;5045125;28;20028;-72
2023/09/02 11:28:05;;;;;;;25.00;22.60;;;;;;;19.28;100.00;101910.44;5038330;28;20033;-72
2023/09/02 11:30:34;;;;;;;24.63;22.13;;;;;;;19.27;100.00;101914.25;5033705;28;20357;-72
2023/09/02 11:32:59;;;;;;;24.98;22.40;;;;;;;19.26;100.00;101911.78;5044322;28;20048;-72
2023/09/02 11:35:29;;;;;;;24.98;22.60;;;;;;;19.26;100.00;101917.25;5042123;28;20447;-71
2023/09/02 11:37:55;;;;;;;25.83;23.42;;;;;;;19.25;100.00;101913.69;5047748;28;20461;-72
2023/09/02 11:40:22;;;;;;;25.50;23.00;;;;;;;19.29;100.00;101911.25;5050999;28;20047;-72
2023/09/02 11:42:59;;;;;;;24.08;21.67;;;;;;;19.33;100.00;101930.78;5052911;28;20415;-71
2023/09/02 11:45:25;;;;;;;24.13;21.83;;;;;;;19.37;100.00;101926.44;5054464;28;20509;-72
2023/09/02 11:47:51;;;;;;;24.33;21.92;;;;;;;19.49;100.00;101929.88;5046173;28;20022;-72
2023/09/02 11:50:19;;;;;;;23.60;21.30;;;;;;;19.52;100.00;101931.25;5035191;28;20033;-72
2023/09/02 11:52:46;;;;;;;24.45;22.05;;;;;;;19.56;100.00;101933.22;5036844;28;20025;-72
2023/09/02 11:55:14;;;;;;;25.23;22.73;;;;;;;19.60;100.00;101928.06;5043223;28;20087;-71
2023/09/02 11:57:40;;;;;;;24.00;21.63;;;;;;;19.56;100.00;101918.66;5046245;28;20364;-72
2023/09/02 12:00:07;;;;;;;24.38;21.98;;;;;;;19.64;100.00;101924.53;5035740;28;20037;-72
2023/09/02 12:02:36;;;;;;;23.58;21.38;;;;;;;19.71;100.00;101932.53;5050806;28;21890;-71
2023/09/02 12:05:05;;;;;;;24.20;21.83;;;;;;;19.73;100.00;101935.88;5048429;28;20610;-72
2023/09/02 12:07:32;;;;;;;23.80;21.50;;;;;;;19.63;100.00;101944.81;5040526;28;20039;-72
2023/09/02 12:10:05;;;;;;;25.15;22.77;;;;;;;19.69;100.00;101959.44;5036995;28;20048;-72
2023/09/02 12:12:30;;;;;;;23.02;20.83;;;;;;;19.74;100.00;101955.91;5035164;28;20044;-71
2023/09/02 12:14:56;;;;;;;22.08;19.88;;;;;;;19.75;100.00;101963.06;5035284;28;20445;-71
2023/09/02 12:17:22;;;;;;;24.00;21.80;;;;;;;19.87;100.00;101963.78;5035198;28;20052;-72
2023/09/02 12:19:48;;;;;;;23.77;21.48;;;;;;;19.77;100.00;101967.22;5034936;28;20444;-71
2023/09/02 12:22:13;;;;;;;23.25;21.15;;;;;;;19.78;100.00;101966.16;5033184;28;20033;-72
2023/09/02 12:24:39;;;;;;;22.80;20.63;;;;;;;19.83;100.00;101957.13;5048795;28;20039;-71
2023/09/02 12:27:04;;;;;;;20.77;18.75;;;;;;;19.93;100.00;101959.13;5050853;28;20440;-72
2023/09/02 12:29:30;;;;;;;20.58;18.50;;;;;;;19.97;100.00;101957.53;5043595;28;20412;-72
2023/09/02 12:31:59;;;;;;;20.55;18.65;;;;;;;19.95;100.00;101963.28;5053869;28;20380;-72
2023/09/02 12:34:33;;;;;;;20.45;18.55;;;;;;;19.94;100.00;101955.31;5053692;28;20048;-72
2023/09/02 12:36:59;;;;;;;20.67;18.77;;;;;;;20.00;100.00;101966.09;5052796;28;20033;-71
2023/09/02 12:39:27;;;;;;;20.30;18.40;;;;;;;19.95;100.00;101974.28;5052210;28;20084;-71
2023/09/02 12:41:53;;;;;;;21.08;18.95;;;;;;;19.99;100.00;101969.91;5044517;28;20026;-71
2023/09/02 12:44:19;;;;;;;21.48;19.42;;;;;;;19.96;100.00;101972.38;5048207;28;20036;-72
2023/09/02 12:46:48;;;;;;;20.70;18.58;;;;;;;19.95;100.00;101979.75;5052632;28;20468;-72
2023/09/02 12:49:15;;;;;;;21.23;19.23;;;;;;;20.04;100.00;101982.03;5053236;28;20036;-72
2023/09/02 12:51:40;;;;;;;20.02;18.13;;;;;;;20.07;100.00;101984.28;5053712;28;20102;-73
2023/09/02 12:54:13;;;;;;;19.48;17.48;;;;;;;20.11;100.00;101988.97;5053267;28;20445;-72
2023/09/02 12:56:39;;;;;;;19.63;17.83;;;;;;;20.08;100.00;101983.16;5049918;28;20029;-72
2023/09/02 12:59:05;;;;;;;20.27;18.33;;;;;;;20.15;100.00;101992.84;5044978;28;20128;-72
2023/09/02 13:01:31;;;;;;;19.77;17.77;;;;;;;20.16;100.00;101996.44;5041929;28;20025;-72
2023/09/02 13:03:58;;;;;;;18.52;16.83;;;;;;;20.11;100.00;101999.13;5053357;28;20032;-72
2023/09/02 13:06:25;;;;;;;19.10;17.38;;;;;;;20.10;100.00;101992.00;5045821;28;20342;-72
2023/09/02 13:08:51;;;;;;;18.80;17.00;;;;;;;20.07;100.00;101990.59;5043466;28;20364;-71
2023/09/02 13:11:18;;;;;;;19.63;17.83;;;;;;;20.08;100.00;101983.16;5053132;28;20108;-71
2023/09/02 13:13:43;;;;;;;20.52;18.48;;;;;;;20.05;100.00;101978.19;5052145;28;20029;-72
2023/09/02 13:16:09;;;;;;;21.05;18.83;;;;;;;20.07;100.00;101987.03;5033427;28;20140;-72
2023/09/02 13:18:34;;;;;;;21.42;19.35;;;;;;;20.01;100.00;101992.44;5039003;28;20025;-72
2023/09/02 13:20:59;;;;;;;21.75;19.48;;;;;;;19.95;100.00;101996.25;5045494;28;20432;-72
2023/09/02 13:23:25;;;;;;;21.10;19.00;;;;;;;19.97;100.00;101999.59;5051704;28;20605;-72
2023/09/02 13:25:50;;;;;;;22.65;20.40;;;;;;;19.99;100.00;102005.63;5049341;28;20116;-71
2023/09/02 13:28:15;;;;;;;22.40;20.15;;;;;;;19.96;100.00;102008.91;5033411;28;20071;-72
2023/09/02 13:30:41;;;;;;;22.98;20.42;;;;;;;19.95;100.00;102012.72;5033811;28;20018;-72
2023/09/02 13:33:07;;;;;;;21.88;19.63;;;;;;;19.95;100.00;102018.22;5032059;28;20029;-72
2023/09/02 13:35:32;;;;;;;23.27;20.83;;;;;;;19.95;100.00;102018.22;5032953;28;20038;-72
2023/09/02 13:37:59;;;;;;;23.48;20.73;;;;;;;20.01;100.00;102011.69;5035942;28;20032;-72
2023/09/02 13:40:33;;;;;;;22.90;20.60;;;;;;;20.01;100.00;102011.69;5040019;28;20033;-72
2023/09/02 13:43:03;;;;;;;22.55;19.35;;;;;;;20.03;100.00;102013.34;5043246;28;20042;-72
2023/09/02 13:45:36;;;;;;;20.15;18.23;;;;;;;20.05;100.00;102013.91;5036975;28;20495;-71
2023/09/02 13:48:03;;;;;;;20.20;17.85;;;;;;;20.09;100.00;102006.81;5033275;28;20148;-72
2023/09/02 13:50:29;;;;;;;20.42;18.33;;;;;;;20.14;100.00;102009.59;5033039;28;20377;-72
2023/09/02 13:52:55;;;;;;;19.40;17.45;;;;;;;20.16;100.00;102001.94;5043983;28;20082;-72
2023/09/02 13:55:23;;;;;;;19.17;17.17;;;;;;;20.15;100.00;102003.00;5049173;28;20051;-71
2023/09/02 13:57:49;;;;;;;18.08;16.17;;;;;;;20.14;100.00;101990.34;5052384;28;20029;-71
2023/09/02 14:00:25;;;;;;;18.50;16.63;;;;;;;20.16;100.00;102001.94;5049354;28;20032;-72
2023/09/02 14:02:51;;;;;;;18.88;16.98;;;;;;;20.19;100.00;101995.91;5037048;28;20028;-72
2023/09/02 14:05:21;;;;;;;19.13;17.23;;;;;;;20.33;100.00;102002.59;5041624;28;20026;-71
2023/09/02 14:07:47;;;;;;;18.70;16.70;;;;;;;20.38;100.00;102004.56;5032839;28;20026;-71
2023/09/02 14:10:12;;;;;;;19.88;17.95;;;;;;;20.44;100.00;102002.69;5032926;28;20032;-72
